sensor_id;sensor_type;location;lat;lon;timestamp;pressure;altitude;pressure_sealevel;temperature;humidity
38806;BME280;25635;51.146;17.162;2024-01-10T00:02:01;101995.27;;;-12.22;79.34
38806;BME280;25635;51.146;17.162;2024-01-10T00:04:29;101991.31;;;-12.25;79.34
38806;BME280;25635;51.146;17.162;2024-01-10T00:06:57;101998.73;;;-12.27;79.24
38806;BME280;25635;51.146;17.162;2024-01-10T00:09:24;101999.11;;;-12.29;79.23
38806;BME280;25635;51.146;17.162;2024-01-10T00:11:53;101991.95;;;-12.29;79.50
38806;BME280;25635;51.146;17.162;2024-01-10T00:14:20;101981.96;;;-12.30;79.50
38806;BME280;25635;51.146;17.162;2024-01-10T00:16:48;101975.64;;;-12.31;79.54
38806;BME280;25635;51.146;17.162;2024-01-10T00:19:15;101977.72;;;-12.30;79.85
38806;BME280;25635;51.146;17.162;2024-01-10T00:21:43;101979.08;;;-12.30;79.76
38806;BME280;25635;51.146;17.162;2024-01-10T00:24:10;101978.58;;;-12.30;79.69
38806;BME280;25635;51.146;17.162;2024-01-10T00:26:37;101979.02;;;-12.31;79.81
38806;BME280;25635;51.146;17.162;2024-01-10T00:29:05;101982.61;;;-12.30;79.87
38806;BME280;25635;51.146;17.162;2024-01-10T00:31:32;101986.36;;;-12.31;79.31
38806;BME280;25635;51.146;17.162;2024-01-10T00:34:00;101985.89;;;-12.34;79.04
38806;BME280;25635;51.146;17.162;2024-01-10T00:36:28;101983.38;;;-12.35;79.04
38806;BME280;25635;51.146;17.162;2024-01-10T00:38:56;101982.85;;;-12.37;79.17
38806;BME280;25635;51.146;17.162;2024-01-10T00:41:24;101979.93;;;-12.38;79.39
38806;BME280;25635;51.146;17.162;2024-01-10T00:43:51;101978.24;;;-12.38;79.22
38806;BME280;25635;51.146;17.162;2024-01-10T00:46:19;101974.88;;;-12.38;79.34
38806;BME280;25635;51.146;17.162;2024-01-10T00:48:47;101971.09;;;-12.39;79.43
38806;BME280;25635;51.146;17.162;2024-01-10T00:51:15;101971.27;;;-12.40;79.23
38806;BME280;25635;51.146;17.162;2024-01-10T00:53:42;101974.81;;;-12.43;79.37
38806;BME280;25635;51.146;17.162;2024-01-10T00:56:10;101975.56;;;-12.42;79.29
38806;BME280;25635;51.146;17.162;2024-01-10T00:58:38;101978.30;;;-12.41;79.27
38806;BME280;25635;51.146;17.162;2024-01-10T01:01:06;101979.36;;;-12.44;79.30
38806;BME280;25635;51.146;17.162;2024-01-10T01:03:33;101983.42;;;-12.49;79.28
38806;BME280;25635;51.146;17.162;2024-01-10T01:06:03;101983.64;;;-12.51;79.12
38806;BME280;25635;51.146;17.162;2024-01-10T01:08:31;101981.96;;;-12.53;79.11
38806;BME280;25635;51.146;17.162;2024-01-10T01:10:59;101981.83;;;-12.54;79.03
38806;BME280;25635;51.146;17.162;2024-01-10T01:13:27;101982.61;;;-12.54;79.18
38806;BME280;25635;51.146;17.162;2024-01-10T01:15:54;101980.49;;;-12.55;79.09
38806;BME280;25635;51.146;17.162;2024-01-10T01:18:21;101979.88;;;-12.55;79.44
38806;BME280;25635;51.146;17.162;2024-01-10T01:20:48;101977.52;;;-12.55;79.34
38806;BME280;25635;51.146;17.162;2024-01-10T01:23:18;101975.52;;;-12.55;79.47
38806;BME280;25635;51.146;17.162;2024-01-10T01:25:45;101974.41;;;-12.55;79.27
38806;BME280;25635;51.146;17.162;2024-01-10T01:28:13;101972.19;;;-12.56;79.54
38806;BME280;25635;51.146;17.162;2024-01-10T01:30:41;101972.15;;;-12.58;79.49
38806;BME280;25635;51.146;17.162;2024-01-10T01:33:08;101974.57;;;-12.59;79.39
38806;BME280;25635;51.146;17.162;2024-01-10T01:35:37;101972.30;;;-12.59;79.36
38806;BME280;25635;51.146;17.162;2024-01-10T01:38:04;101974.65;;;-12.59;79.28
38806;BME280;25635;51.146;17.162;2024-01-10T01:40:31;101971.30;;;-12.58;79.68
38806;BME280;25635;51.146;17.162;2024-01-10T01:42:59;101968.50;;;-12.57;79.48
38806;BME280;25635;51.146;17.162;2024-01-10T01:45:27;101973.23;;;-12.58;79.54
38806;BME280;25635;51.146;17.162;2024-01-10T01:47:54;101976.50;;;-12.61;79.33
38806;BME280;25635;51.146;17.162;2024-01-10T01:50:20;101976.08;;;-12.63;78.95
38806;BME280;25635;51.146;17.162;2024-01-10T01:52:47;101973.78;;;-12.66;79.07
38806;BME280;25635;51.146;17.162;2024-01-10T01:55:14;101971.64;;;-12.67;79.21
38806;BME280;25635;51.146;17.162;2024-01-10T01:57:41;101969.95;;;-12.67;79.13
38806;BME280;25635;51.146;17.162;2024-01-10T02:00:08;101967.75;;;-12.69;79.18
38806;BME280;25635;51.146;17.162;2024-01-10T02:02:36;101968.55;;;-12.69;79.21
38806;BME280;25635;51.146;17.162;2024-01-10T02:05:03;101964.80;;;-12.71;78.95
38806;BME280;25635;51.146;17.162;2024-01-10T02:07:30;101970.89;;;-12.70;79.18
38806;BME280;25635;51.146;17.162;2024-01-10T02:09:57;101970.21;;;-12.72;79.03
38806;BME280;25635;51.146;17.162;2024-01-10T02:12:24;101966.55;;;-12.73;79.03
38806;BME280;25635;51.146;17.162;2024-01-10T02:14:52;101965.25;;;-12.74;79.20
38806;BME280;25635;51.146;17.162;2024-01-10T02:17:18;101959.35;;;-12.74;79.17
38806;BME280;25635;51.146;17.162;2024-01-10T02:19:45;101959.27;;;-12.74;79.33
38806;BME280;25635;51.146;17.162;2024-01-10T02:22:12;101951.79;;;-12.74;79.07
38806;BME280;25635;51.146;17.162;2024-01-10T02:24:39;101951.08;;;-12.75;79.22
38806;BME280;25635;51.146;17.162;2024-01-10T02:27:05;101953.56;;;-12.77;78.92
38806;BME280;25635;51.146;17.162;2024-01-10T02:29:34;101954.02;;;-12.79;79.12
38806;BME280;25635;51.146;17.162;2024-01-10T02:32:01;101953.11;;;-12.79;79.06
38806;BME280;25635;51.146;17.162;2024-01-10T02:34:29;101952.24;;;-12.79;78.96
38806;BME280;25635;51.146;17.162;2024-01-10T02:36:57;101949.29;;;-12.80;78.92
38806;BME280;25635;51.146;17.162;2024-01-10T02:39:24;101948.65;;;-12.80;78.90
38806;BME280;25635;51.146;17.162;2024-01-10T02:41:51;101940.80;;;-12.80;79.02
38806;BME280;25635;51.146;17.162;2024-01-10T02:44:18;101936.80;;;-12.79;79.24
38806;BME280;25635;51.146;17.162;2024-01-10T02:46:46;101931.01;;;-12.77;79.39
38806;BME280;25635;51.146;17.162;2024-01-10T02:49:12;101929.30;;;-12.76;79.48
38806;BME280;25635;51.146;17.162;2024-01-10T02:51:40;101924.77;;;-12.74;79.37
38806;BME280;25635;51.146;17.162;2024-01-10T02:54:07;101922.41;;;-12.76;79.05
38806;BME280;25635;51.146;17.162;2024-01-10T02:56:34;101924.22;;;-12.78;79.12
38806;BME280;25635;51.146;17.162;2024-01-10T02:59:01;101924.06;;;-12.79;79.34
38806;BME280;25635;51.146;17.162;2024-01-10T03:01:27;101925.22;;;-12.79;79.24
38806;BME280;25635;51.146;17.162;2024-01-10T03:03:54;101927.20;;;-12.79;79.20
38806;BME280;25635;51.146;17.162;2024-01-10T03:06:21;101933.84;;;-12.77;79.26
38806;BME280;25635;51.146;17.162;2024-01-10T03:08:47;101936.54;;;-12.75;79.13
38806;BME280;25635;51.146;17.162;2024-01-10T03:11:14;101937.70;;;-12.77;78.82
38806;BME280;25635;51.146;17.162;2024-01-10T03:13:43;101937.67;;;-12.77;78.93
38806;BME280;25635;51.146;17.162;2024-01-10T03:16:13;101937.73;;;-12.78;78.84
38806;BME280;25635;51.146;17.162;2024-01-10T03:18:40;101936.04;;;-12.79;79.03
38806;BME280;25635;51.146;17.162;2024-01-10T03:21:07;101940.03;;;-12.76;79.11
38806;BME280;25635;51.146;17.162;2024-01-10T03:23:33;101939.19;;;-12.75;79.46
38806;BME280;25635;51.146;17.162;2024-01-10T03:26:00;101933.79;;;-12.74;79.23
38806;BME280;25635;51.146;17.162;2024-01-10T03:28:27;101934.41;;;-12.75;79.21
38806;BME280;25635;51.146;17.162;2024-01-10T03:30:54;101930.71;;;-12.76;79.27
38806;BME280;25635;51.146;17.162;2024-01-10T03:33:21;101931.44;;;-12.76;79.33
38806;BME280;25635;51.146;17.162;2024-01-10T03:35:48;101927.12;;;-12.77;79.38
38806;BME280;25635;51.146;17.162;2024-01-10T03:38:15;101927.61;;;-12.77;79.17
38806;BME280;25635;51.146;17.162;2024-01-10T03:40:42;101929.16;;;-12.78;79.29
38806;BME280;25635;51.146;17.162;2024-01-10T03:43:09;101927.63;;;-12.79;79.17
38806;BME280;25635;51.146;17.162;2024-01-10T03:45:36;101930.40;;;-12.79;79.30
38806;BME280;25635;51.146;17.162;2024-01-10T03:48:03;101934.90;;;-12.80;79.23
38806;BME280;25635;51.146;17.162;2024-01-10T03:50:30;101934.64;;;-12.80;79.33
38806;BME280;25635;51.146;17.162;2024-01-10T03:52:57;101929.55;;;-12.84;78.99
38806;BME280;25635;51.146;17.162;2024-01-10T03:55:23;101926.12;;;-12.86;78.90
38806;BME280;25635;51.146;17.162;2024-01-10T03:57:50;101925.47;;;-12.91;79.16
38806;BME280;25635;51.146;17.162;2024-01-10T04:00:17;101921.95;;;-12.95;78.77
38806;BME280;25635;51.146;17.162;2024-01-10T04:02:44;101918.79;;;-12.98;78.92
38806;BME280;25635;51.146;17.162;2024-01-10T04:05:11;101919.19;;;-12.97;79.15
38806;BME280;25635;51.146;17.162;2024-01-10T04:07:41;101915.05;;;-12.97;79.24
38806;BME280;25635;51.146;17.162;2024-01-10T04:10:13;101913.20;;;-12.97;79.29
38806;BME280;25635;51.146;17.162;2024-01-10T04:12:40;101910.89;;;-12.96;79.27
38806;BME280;25635;51.146;17.162;2024-01-10T04:15:08;101912.64;;;-12.99;78.84
38806;BME280;25635;51.146;17.162;2024-01-10T04:17:35;101911.89;;;-12.99;79.06
38806;BME280;25635;51.146;17.162;2024-01-10T04:20:03;101916.64;;;-12.99;79.23
38806;BME280;25635;51.146;17.162;2024-01-10T04:22:30;101913.11;;;-13.00;79.10
38806;BME280;25635;51.146;17.162;2024-01-10T04:25:01;101916.08;;;-13.02;78.92
38806;BME280;25635;51.146;17.162;2024-01-10T04:27:28;101916.44;;;-13.02;79.28
38806;BME280;25635;51.146;17.162;2024-01-10T04:29:55;101916.80;;;-13.02;78.88
38806;BME280;25635;51.146;17.162;2024-01-10T04:32:21;101915.56;;;-13.01;78.97
38806;BME280;25635;51.146;17.162;2024-01-10T04:34:48;101911.42;;;-13.00;79.07
38806;BME280;25635;51.146;17.162;2024-01-10T04:37:15;101906.67;;;-13.01;78.85
38806;BME280;25635;51.146;17.162;2024-01-10T04:39:42;101906.14;;;-13.01;79.20
38806;BME280;25635;51.146;17.162;2024-01-10T04:42:12;101905.04;;;-13.02;79.10
38806;BME280;25635;51.146;17.162;2024-01-10T04:44:39;101902.04;;;-13.02;79.10
38806;BME280;25635;51.146;17.162;2024-01-10T04:47:07;101906.10;;;-13.03;78.72
38806;BME280;25635;51.146;17.162;2024-01-10T04:49:34;101907.13;;;-13.07;78.64
38806;BME280;25635;51.146;17.162;2024-01-10T04:52:01;101905.73;;;-13.09;78.79
38806;BME280;25635;51.146;17.162;2024-01-10T04:54:28;101906.17;;;-13.10;78.79
38806;BME280;25635;51.146;17.162;2024-01-10T04:56:54;101907.26;;;-13.11;78.98
38806;BME280;25635;51.146;17.162;2024-01-10T04:59:21;101902.13;;;-13.13;79.17
38806;BME280;25635;51.146;17.162;2024-01-10T05:01:48;101900.83;;;-13.14;79.08
38806;BME280;25635;51.146;17.162;2024-01-10T05:04:15;101910.40;;;-13.14;79.23
38806;BME280;25635;51.146;17.162;2024-01-10T05:06:42;101908.68;;;-13.14;78.78
38806;BME280;25635;51.146;17.162;2024-01-10T05:09:08;101905.55;;;-13.14;78.97
38806;BME280;25635;51.146;17.162;2024-01-10T05:11:36;101908.51;;;-13.14;78.79
38806;BME280;25635;51.146;17.162;2024-01-10T05:14:03;101913.22;;;-13.16;78.80
38806;BME280;25635;51.146;17.162;2024-01-10T05:16:30;101914.02;;;-13.16;78.94
38806;BME280;25635;51.146;17.162;2024-01-10T05:19:00;101910.97;;;-13.16;79.13
38806;BME280;25635;51.146;17.162;2024-01-10T05:21:31;101917.10;;;-13.14;79.15
38806;BME280;25635;51.146;17.162;2024-01-10T05:23:59;101923.68;;;-13.14;79.10
38806;BME280;25635;51.146;17.162;2024-01-10T05:26:26;101917.54;;;-13.15;78.95
38806;BME280;25635;51.146;17.162;2024-01-10T05:28:53;101918.20;;;-13.18;78.71
38806;BME280;25635;51.146;17.162;2024-01-10T05:31:20;101920.08;;;-13.22;78.79
38806;BME280;25635;51.146;17.162;2024-01-10T05:33:47;101919.08;;;-13.26;78.84
38806;BME280;25635;51.146;17.162;2024-01-10T05:36:13;101917.18;;;-13.30;78.77
38806;BME280;25635;51.146;17.162;2024-01-10T05:38:40;101916.52;;;-13.32;78.76
38806;BME280;25635;51.146;17.162;2024-01-10T05:41:08;101917.34;;;-13.33;78.74
38806;BME280;25635;51.146;17.162;2024-01-10T05:43:34;101916.41;;;-13.34;78.70
38806;BME280;25635;51.146;17.162;2024-01-10T05:46:01;101913.50;;;-13.36;78.82
38806;BME280;25635;51.146;17.162;2024-01-10T05:48:28;101913.89;;;-13.37;78.88
38806;BME280;25635;51.146;17.162;2024-01-10T05:50:55;101910.27;;;-13.39;78.81
38806;BME280;25635;51.146;17.162;2024-01-10T05:53:24;101909.02;;;-13.43;78.97
38806;BME280;25635;51.146;17.162;2024-01-10T05:56:01;101908.39;;;-13.45;78.86
38806;BME280;25635;51.146;17.162;2024-01-10T05:58:28;101910.63;;;-13.47;79.05
38806;BME280;25635;51.146;17.162;2024-01-10T06:00:55;101907.36;;;-13.47;79.01
38806;BME280;25635;51.146;17.162;2024-01-10T06:03:21;101907.73;;;-13.49;78.83
38806;BME280;25635;51.146;17.162;2024-01-10T06:05:48;101909.98;;;-13.49;78.87
38806;BME280;25635;51.146;17.162;2024-01-10T06:08:15;101914.74;;;-13.49;78.85
38806;BME280;25635;51.146;17.162;2024-01-10T06:10:42;101916.42;;;-13.50;78.84
38806;BME280;25635;51.146;17.162;2024-01-10T06:13:09;101917.39;;;-13.50;78.86
38806;BME280;25635;51.146;17.162;2024-01-10T06:15:36;101918.73;;;-13.50;78.90
38806;BME280;25635;51.146;17.162;2024-01-10T06:18:02;101919.45;;;-13.50;78.87
38806;BME280;25635;51.146;17.162;2024-01-10T06:20:30;101927.25;;;-13.51;78.63
38806;BME280;25635;51.146;17.162;2024-01-10T06:22:58;101924.77;;;-13.52;78.66
38806;BME280;25635;51.146;17.162;2024-01-10T06:25:25;101923.88;;;-13.51;78.83
38806;BME280;25635;51.146;17.162;2024-01-10T06:27:52;101925.81;;;-13.51;78.80
38806;BME280;25635;51.146;17.162;2024-01-10T06:30:19;101925.02;;;-13.54;78.70
38806;BME280;25635;51.146;17.162;2024-01-10T06:32:47;101925.25;;;-13.56;78.68
38806;BME280;25635;51.146;17.162;2024-01-10T06:35:14;101923.80;;;-13.57;78.75
38806;BME280;25635;51.146;17.162;2024-01-10T06:37:41;101926.11;;;-13.58;78.76
38806;BME280;25635;51.146;17.162;2024-01-10T06:40:11;101921.16;;;-13.58;78.56
38806;BME280;25635;51.146;17.162;2024-01-10T06:42:38;101915.48;;;-13.60;78.84
38806;BME280;25635;51.146;17.162;2024-01-10T06:45:06;101907.85;;;-13.59;78.89
38806;BME280;25635;51.146;17.162;2024-01-10T06:47:34;101905.77;;;-13.59;78.74
38806;BME280;25635;51.146;17.162;2024-01-10T06:50:02;101899.19;;;-13.60;78.89
38806;BME280;25635;51.146;17.162;2024-01-10T06:52:29;101898.67;;;-13.60;78.88
38806;BME280;25635;51.146;17.162;2024-01-10T06:54:56;101898.56;;;-13.59;78.91
38806;BME280;25635;51.146;17.162;2024-01-10T06:57:23;101901.05;;;-13.58;78.78
38806;BME280;25635;51.146;17.162;2024-01-10T06:59:50;101899.63;;;-13.59;78.90
38806;BME280;25635;51.146;17.162;2024-01-10T07:02:17;101895.88;;;-13.59;79.05
38806;BME280;25635;51.146;17.162;2024-01-10T07:04:46;101895.66;;;-13.59;78.99
38806;BME280;25635;51.146;17.162;2024-01-10T07:07:20;101889.60;;;-13.60;79.06
38806;BME280;25635;51.146;17.162;2024-01-10T07:09:50;101885.86;;;-13.59;79.12
38806;BME280;25635;51.146;17.162;2024-01-10T07:12:17;101889.80;;;-13.57;79.09
38806;BME280;25635;51.146;17.162;2024-01-10T07:14:46;101885.34;;;-13.56;79.29
38806;BME280;25635;51.146;17.162;2024-01-10T07:17:16;101880.77;;;-13.58;78.90
38806;BME280;25635;51.146;17.162;2024-01-10T07:19:43;101879.84;;;-13.59;78.97
38806;BME280;25635;51.146;17.162;2024-01-10T07:22:10;101880.41;;;-13.56;79.22
38806;BME280;25635;51.146;17.162;2024-01-10T07:24:37;101870.77;;;-13.56;79.05
38806;BME280;25635;51.146;17.162;2024-01-10T07:27:04;101868.51;;;-13.54;79.25
38806;BME280;25635;51.146;17.162;2024-01-10T07:29:33;101860.27;;;-13.51;79.35
38806;BME280;25635;51.146;17.162;2024-01-10T07:32:00;101858.24;;;-13.48;79.36
38806;BME280;25635;51.146;17.162;2024-01-10T07:34:28;101861.25;;;-13.45;79.38
38806;BME280;25635;51.146;17.162;2024-01-10T07:36:55;101854.55;;;-13.42;79.56
38806;BME280;25635;51.146;17.162;2024-01-10T07:39:24;101852.84;;;-13.38;79.63
38806;BME280;25635;51.146;17.162;2024-01-10T07:41:51;101855.11;;;-13.31;79.71
38806;BME280;25635;51.146;17.162;2024-01-10T07:44:20;101856.82;;;-13.26;79.79
38806;BME280;25635;51.146;17.162;2024-01-10T07:46:47;101863.75;;;-13.21;79.90
38806;BME280;25635;51.146;17.162;2024-01-10T07:49:14;101863.67;;;-13.16;79.98
38806;BME280;25635;51.146;17.162;2024-01-10T07:51:43;101869.91;;;-13.11;79.89
38806;BME280;25635;51.146;17.162;2024-01-10T07:54:10;101869.03;;;-13.07;79.95
38806;BME280;25635;51.146;17.162;2024-01-10T07:56:37;101867.23;;;-13.02;79.94
38806;BME280;25635;51.146;17.162;2024-01-10T07:59:06;101873.55;;;-12.97;80.07
38806;BME280;25635;51.146;17.162;2024-01-10T08:01:35;101876.72;;;-12.92;79.98
38806;BME280;25635;51.146;17.162;2024-01-10T08:04:02;101875.13;;;-12.89;79.83
38806;BME280;25635;51.146;17.162;2024-01-10T08:06:31;101878.23;;;-12.85;80.02
38806;BME280;25635;51.146;17.162;2024-01-10T08:08:58;101881.60;;;-12.77;80.02
38806;BME280;25635;51.146;17.162;2024-01-10T08:11:25;101885.10;;;-12.72;80.35
38806;BME280;25635;51.146;17.162;2024-01-10T08:13:52;101884.95;;;-12.64;80.46
38806;BME280;25635;51.146;17.162;2024-01-10T08:16:19;101886.09;;;-12.58;80.31
38806;BME280;25635;51.146;17.162;2024-01-10T08:18:45;101885.19;;;-12.52;80.30
38806;BME280;25635;51.146;17.162;2024-01-10T08:21:12;101885.98;;;-12.47;80.44
38806;BME280;25635;51.146;17.162;2024-01-10T08:23:39;101888.14;;;-12.41;80.33
38806;BME280;25635;51.146;17.162;2024-01-10T08:26:07;101896.98;;;-12.34;80.31
38806;BME280;25635;51.146;17.162;2024-01-10T08:28:34;101894.63;;;-12.28;80.35
38806;BME280;25635;51.146;17.162;2024-01-10T08:31:08;101896.72;;;-12.24;80.17
38806;BME280;25635;51.146;17.162;2024-01-10T08:33:35;101896.95;;;-12.20;80.20
38806;BME280;25635;51.146;17.162;2024-01-10T08:36:01;101895.79;;;-12.15;80.32
38806;BME280;25635;51.146;17.162;2024-01-10T08:38:28;101901.29;;;-12.10;80.38
38806;BME280;25635;51.146;17.162;2024-01-10T08:40:55;101899.27;;;-12.02;80.38
38806;BME280;25635;51.146;17.162;2024-01-10T08:43:22;101894.30;;;-11.95;80.50
38806;BME280;25635;51.146;17.162;2024-01-10T08:45:49;101892.47;;;-11.89;80.81
38806;BME280;25635;51.146;17.162;2024-01-10T08:48:15;101886.11;;;-11.78;80.98
38806;BME280;25635;51.146;17.162;2024-01-10T08:50:42;101882.75;;;-11.68;80.95
38806;BME280;25635;51.146;17.162;2024-01-10T08:53:23;101875.78;;;-11.59;80.72
38806;BME280;25635;51.146;17.162;2024-01-10T08:55:53;101871.17;;;-11.51;80.85
38806;BME280;25635;51.146;17.162;2024-01-10T08:58:20;101868.98;;;-11.42;81.14
38806;BME280;25635;51.146;17.162;2024-01-10T09:00:47;101872.86;;;-11.34;80.92
38806;BME280;25635;51.146;17.162;2024-01-10T09:03:13;101879.12;;;-11.27;80.78
38806;BME280;25635;51.146;17.162;2024-01-10T09:05:40;101876.52;;;-11.22;80.69
38806;BME280;25635;51.146;17.162;2024-01-10T09:08:07;101875.46;;;-11.14;80.74
38806;BME280;25635;51.146;17.162;2024-01-10T09:10:34;101872.96;;;-11.05;80.94
38806;BME280;25635;51.146;17.162;2024-01-10T09:21:23;101865.05;;;-10.68;80.83
38806;BME280;25635;51.146;17.162;2024-01-10T09:23:50;101863.48;;;-10.60;80.82
38806;BME280;25635;51.146;17.162;2024-01-10T09:26:17;101856.79;;;-10.52;81.08
38806;BME280;25635;51.146;17.162;2024-01-10T09:28:45;101857.48;;;-10.43;80.98
38806;BME280;25635;51.146;17.162;2024-01-10T09:31:12;101857.98;;;-10.36;80.70
38806;BME280;25635;51.146;17.162;2024-01-10T09:33:40;101859.90;;;-10.29;80.84
38806;BME280;25635;51.146;17.162;2024-01-10T09:36:07;101861.75;;;-10.22;80.55
38806;BME280;25635;51.146;17.162;2024-01-10T09:38:36;101857.95;;;-10.13;80.97
38806;BME280;25635;51.146;17.162;2024-01-10T09:41:06;101858.31;;;-10.04;80.90
38806;BME280;25635;51.146;17.162;2024-01-10T09:43:33;101861.27;;;-9.93;81.10
38806;BME280;25635;51.146;17.162;2024-01-10T09:46:04;101861.23;;;-9.85;81.04
38806;BME280;25635;51.146;17.162;2024-01-10T09:48:33;101857.77;;;-9.78;80.62
38806;BME280;25635;51.146;17.162;2024-01-10T09:51:03;101854.52;;;-9.71;80.63
38806;BME280;25635;51.146;17.162;2024-01-10T09:53:35;101853.16;;;-9.66;80.53
38806;BME280;25635;51.146;17.162;2024-01-10T09:56:04;101850.65;;;-9.59;80.42
38806;BME280;25635;51.146;17.162;2024-01-10T09:58:31;101843.02;;;-9.54;80.17
38806;BME280;25635;51.146;17.162;2024-01-10T10:01:00;101840.73;;;-9.47;80.38
38806;BME280;25635;51.146;17.162;2024-01-10T10:03:30;101833.85;;;-9.39;80.59
38806;BME280;25635;51.146;17.162;2024-01-10T10:05:59;101835.99;;;-9.31;80.19
38806;BME280;25635;51.146;17.162;2024-01-10T10:08:26;101837.38;;;-9.27;79.87
38806;BME280;25635;51.146;17.162;2024-01-10T10:10:53;101837.28;;;-9.23;80.18
38806;BME280;25635;51.146;17.162;2024-01-10T10:13:27;101837.16;;;-9.15;80.28
38806;BME280;25635;51.146;17.162;2024-01-10T10:16:03;101833.01;;;-9.11;80.11
38806;BME280;25635;51.146;17.162;2024-01-10T10:18:31;101832.85;;;-9.06;79.96
38806;BME280;25635;51.146;17.162;2024-01-10T10:21:12;101829.44;;;-8.97;80.42
38806;BME280;25635;51.146;17.162;2024-01-10T10:23:43;101825.79;;;-8.88;80.40
38806;BME280;25635;51.146;17.162;2024-01-10T10:26:14;101826.83;;;-8.82;79.91
38806;BME280;25635;51.146;17.162;2024-01-10T10:28:47;101826.36;;;-8.75;80.25
38806;BME280;25635;51.146;17.162;2024-01-10T10:31:15;101826.59;;;-8.67;80.02
38806;BME280;25635;51.146;17.162;2024-01-10T10:33:44;101824.46;;;-8.60;80.13
38806;BME280;25635;51.146;17.162;2024-01-10T10:36:13;101828.21;;;-8.53;80.22
38806;BME280;25635;51.146;17.162;2024-01-10T10:38:40;101825.19;;;-8.48;79.88
38806;BME280;25635;51.146;17.162;2024-01-10T10:41:07;101824.10;;;-8.43;79.88
38806;BME280;25635;51.146;17.162;2024-01-10T10:43:38;101828.52;;;-8.39;79.73
38806;BME280;25635;51.146;17.162;2024-01-10T10:46:07;101832.84;;;-8.34;79.52
38806;BME280;25635;51.146;17.162;2024-01-10T10:48:34;101832.60;;;-8.29;79.63
38806;BME280;25635;51.146;17.162;2024-01-10T10:51:05;101829.05;;;-8.22;79.94
38806;BME280;25635;51.146;17.162;2024-01-10T10:53:37;101825.96;;;-8.15;79.87
38806;BME280;25635;51.146;17.162;2024-01-10T10:56:06;101824.56;;;-8.10;79.69
38806;BME280;25635;51.146;17.162;2024-01-10T10:58:35;101827.89;;;-8.05;79.74
38806;BME280;25635;51.146;17.162;2024-01-10T11:01:06;101825.30;;;-8.01;79.53
38806;BME280;25635;51.146;17.162;2024-01-10T11:03:38;101822.97;;;-7.95;79.70
38806;BME280;25635;51.146;17.162;2024-01-10T11:06:14;101817.11;;;-7.86;79.95
38806;BME280;25635;51.146;17.162;2024-01-10T11:08:50;101813.38;;;-7.77;80.23
38806;BME280;25635;51.146;17.162;2024-01-10T11:11:53;101815.39;;;-7.68;80.14
38806;BME280;25635;51.146;17.162;2024-01-10T11:20:18;101808.34;;;-7.41;80.03
38806;BME280;25635;51.146;17.162;2024-01-10T11:22:52;101801.95;;;-7.32;79.75
38806;BME280;25635;51.146;17.162;2024-01-10T11:25:26;101801.44;;;-7.25;79.80
38806;BME280;25635;51.146;17.162;2024-01-10T11:27:56;101798.38;;;-7.17;79.89
38806;BME280;25635;51.146;17.162;2024-01-10T11:30:36;101795.26;;;-7.12;79.60
38806;BME280;25635;51.146;17.162;2024-01-10T11:33:24;101794.23;;;-7.08;79.34
38806;BME280;25635;51.146;17.162;2024-01-10T11:36:19;101792.26;;;-7.02;79.54
38806;BME280;25635;51.146;17.162;2024-01-10T11:46:54;101784.38;;;-6.80;79.48
38806;BME280;25635;51.146;17.162;2024-01-10T11:49:21;101781.66;;;-6.74;79.31
38806;BME280;25635;51.146;17.162;2024-01-10T11:51:51;101778.29;;;-6.69;79.02
38806;BME280;25635;51.146;17.162;2024-01-10T11:54:38;101774.61;;;-6.67;79.06
38806;BME280;25635;51.146;17.162;2024-01-10T11:57:19;101772.85;;;-6.65;78.77
38806;BME280;25635;51.146;17.162;2024-01-10T11:59:50;101763.55;;;-6.61;79.08
38806;BME280;25635;51.146;17.162;2024-01-10T12:02:18;101757.34;;;-6.55;79.30
38806;BME280;25635;51.146;17.162;2024-01-10T12:04:46;101755.71;;;-6.50;78.90
38806;BME280;25635;51.146;17.162;2024-01-10T12:07:14;101755.99;;;-6.46;78.93
38806;BME280;25635;51.146;17.162;2024-01-10T12:09:41;101750.92;;;-6.42;78.95
38806;BME280;25635;51.146;17.162;2024-01-10T12:12:13;101748.36;;;-6.37;79.03
38806;BME280;25635;51.146;17.162;2024-01-10T12:14:54;101748.37;;;-6.32;78.88
38806;BME280;25635;51.146;17.162;2024-01-10T12:17:27;101746.26;;;-6.28;78.55
38806;BME280;25635;51.146;17.162;2024-01-10T12:19:56;101746.30;;;-6.26;78.57
38806;BME280;25635;51.146;17.162;2024-01-10T12:22:23;101742.98;;;-6.21;78.87
38806;BME280;25635;51.146;17.162;2024-01-10T12:24:50;101741.93;;;-6.16;78.51
38806;BME280;25635;51.146;17.162;2024-01-10T12:27:24;101743.04;;;-6.13;78.18
38806;BME280;25635;51.146;17.162;2024-01-10T12:29:51;101739.73;;;-6.12;78.06
38806;BME280;25635;51.146;17.162;2024-01-10T12:32:20;101733.79;;;-6.09;78.16
38806;BME280;25635;51.146;17.162;2024-01-10T12:34:57;101730.77;;;-6.05;78.19
38806;BME280;25635;51.146;17.162;2024-01-10T12:37:27;101730.76;;;-6.03;77.93
38806;BME280;25635;51.146;17.162;2024-01-10T12:39:54;101728.55;;;-5.99;77.96
38806;BME280;25635;51.146;17.162;2024-01-10T12:42:23;101726.05;;;-5.96;78.02
38806;BME280;25635;51.146;17.162;2024-01-10T12:44:51;101724.65;;;-5.92;78.16
38806;BME280;25635;51.146;17.162;2024-01-10T12:47:21;101727.52;;;-5.88;78.15
38806;BME280;25635;51.146;17.162;2024-01-10T12:50:09;101724.64;;;-5.84;78.20
38806;BME280;25635;51.146;17.162;2024-01-10T12:53:30;101728.33;;;-5.76;78.09
38806;BME280;25635;51.146;17.162;2024-01-10T12:55:57;101723.65;;;-5.71;77.99
38806;BME280;25635;51.146;17.162;2024-01-10T12:58:24;101721.02;;;-5.68;77.87
38806;BME280;25635;51.146;17.162;2024-01-10T13:00:51;101716.30;;;-5.65;77.54
38806;BME280;25635;51.146;17.162;2024-01-10T13:03:17;101708.83;;;-5.63;77.58